sensor_id;sensor_type;location;lat;lon;timestamp;temperature;humidity
12520;DHT22;6325;49.540;8.364;2022-09-16T08:28:23;16.70;99.90
12520;DHT22;6325;49.540;8.364;2022-09-16T08:38:48;16.40;99.90
12520;DHT22;6325;49.540;8.364;2022-09-16T08:43:36;16.70;99.90
12520;DHT22;6325;49.540;8.364;2022-09-16T08:46:43;16.90;99.90
12520;DHT22;6325;49.540;8.364;2022-09-16T08:50:53;16.90;99.90
12520;DHT22;6325;49.540;8.364;2022-09-16T08:54:14;16.40;99.90
12520;DHT22;6325;49.540;8.364;2022-09-16T08:57:35;17.00;99.90
12520;DHT22;6325;49.540;8.364;2022-09-16T09:04:18;17.30;99.90
12520;DHT22;6325;49.540;8.364;2022-09-16T09:07:35;17.90;99.90
12520;DHT22;6325;49.540;8.364;2022-09-16T09:10:41;17.30;99.90
12520;DHT22;6325;49.540;8.364;2022-09-16T09:13:37;17.20;99.90
12520;DHT22;6325;49.540;8.364;2022-09-16T09:16:46;17.70;99.90
12520;DHT22;6325;49.540;8.364;2022-09-16T09:35:34;17.30;99.90
12520;DHT22;6325;49.540;8.364;2022-09-16T09:38:42;17.40;99.90
12520;DHT22;6325;49.540;8.364;2022-09-16T09:41:17;17.50;99.90
12520;DHT22;6325;49.540;8.364;2022-09-16T09:43:47;17.40;99.90
12520;DHT22;6325;49.540;8.364;2022-09-16T09:46:18;18.20;99.90
12520;DHT22;6325;49.540;8.364;2022-09-16T09:48:54;18.00;99.90
12520;DHT22;6325;49.540;8.364;2022-09-16T09:51:27;18.10;99.90
12520;DHT22;6325;49.540;8.364;2022-09-16T09:53:58;18.20;99.90
12520;DHT22;6325;49.540;8.364;2022-09-16T09:56:45;18.90;99.90
12520;DHT22;6325;49.540;8.364;2022-09-16T09:59:26;18.70;99.90
12520;DHT22;6325;49.540;8.364;2022-09-16T10:01:55;18.40;99.90
12520;DHT22;6325;49.540;8.364;2022-09-16T10:04:43;18.20;99.90
12520;DHT22;6325;49.540;8.364;2022-09-16T10:07:15;17.80;99.90
12520;DHT22;6325;49.540;8.364;2022-09-16T10:09:48;18.70;99.90
12520;DHT22;6325;49.540;8.364;2022-09-16T10:12:29;18.40;99.90
12520;DHT22;6325;49.540;8.364;2022-09-16T10:18:43;18.90;99.90
12520;DHT22;6325;49.540;8.364;2022-09-16T10:21:55;18.10;99.90
12520;DHT22;6325;49.540;8.364;2022-09-16T10:25:23;18.60;99.90
12520;DHT22;6325;49.540;8.364;2022-09-16T11:02:27;19.50;99.90
12520;DHT22;6325;49.540;8.364;2022-09-16T11:05:16;19.40;99.90
12520;DHT22;6325;49.540;8.364;2022-09-16T11:07:52;19.40;99.90
12520;DHT22;6325;49.540;8.364;2022-09-16T11:10:31;18.80;99.90
12520;DHT22;6325;49.540;8.364;2022-09-16T11:16:08;20.00;99.90
12520;DHT22;6325;49.540;8.364;2022-09-16T11:18:45;19.50;99.90
12520;DHT22;6325;49.540;8.364;2022-09-16T11:21:26;19.90;99.90
12520;DHT22;6325;49.540;8.364;2022-09-16T11:24:06;19.90;99.90
12520;DHT22;6325;49.540;8.364;2022-09-16T11:26:44;20.20;99.90
12520;DHT22;6325;49.540;8.364;2022-09-16T11:29:31;19.50;99.90
12520;DHT22;6325;49.540;8.364;2022-09-16T11:32:10;20.10;99.90
12520;DHT22;6325;49.540;8.364;2022-09-16T11:34:52;20.40;99.90
12520;DHT22;6325;49.540;8.364;2022-09-16T11:37:26;19.60;99.90
12520;DHT22;6325;49.540;8.364;2022-09-16T11:40:07;20.10;99.90
12520;DHT22;6325;49.540;8.364;2022-09-16T11:42:41;20.20;99.90
12520;DHT22;6325;49.540;8.364;2022-09-16T11:45:20;20.70;99.90
12520;DHT22;6325;49.540;8.364;2022-09-16T11:48:01;20.60;99.90
12520;DHT22;6325;49.540;8.364;2022-09-16T11:50:36;20.60;99.90
12520;DHT22;6325;49.540;8.364;2022-09-16T11:53:29;20.90;99.90
12520;DHT22;6325;49.540;8.364;2022-09-16T11:56:05;20.50;99.90
12520;DHT22;6325;49.540;8.364;2022-09-16T11:58:40;20.30;99.90
12520;DHT22;6325;49.540;8.364;2022-09-16T12:01:17;19.70;99.90
12520;DHT22;6325;49.540;8.364;2022-09-16T12:03:52;20.40;99.90
12520;DHT22;6325;49.540;8.364;2022-09-16T12:06:29;20.70;99.90
12520;DHT22;6325;49.540;8.364;2022-09-16T12:09:06;21.10;99.90
12520;DHT22;6325;49.540;8.364;2022-09-16T12:11:49;20.10;99.90
12520;DHT22;6325;49.540;8.364;2022-09-16T12:14:22;20.50;99.90
12520;DHT22;6325;49.540;8.364;2022-09-16T12:16:53;20.30;99.90
12520;DHT22;6325;49.540;8.364;2022-09-16T12:19:22;20.00;99.90
12520;DHT22;6325;49.540;8.364;2022-09-16T12:22:01;20.70;99.90
12520;DHT22;6325;49.540;8.364;2022-09-16T12:24:36;20.60;99.90
12520;DHT22;6325;49.540;8.364;2022-09-16T12:27:10;20.10;99.90
12520;DHT22;6325;49.540;8.364;2022-09-16T12:29:45;20.30;99.90
12520;DHT22;6325;49.540;8.364;2022-09-16T12:32:21;20.50;99.90
12520;DHT22;6325;49.540;8.364;2022-09-16T12:34:52;20.10;99.90
12520;DHT22;6325;49.540;8.364;2022-09-16T12:37:32;20.30;99.90
12520;DHT22;6325;49.540;8.364;2022-09-16T12:40:04;20.60;99.90
12520;DHT22;6325;49.540;8.364;2022-09-16T12:43:08;21.30;99.90
12520;DHT22;6325;49.540;8.364;2022-09-16T12:46:16;20.80;99.90
12520;DHT22;6325;49.540;8.364;2022-09-16T12:52:22;21.00;99.90
12520;DHT22;6325;49.540;8.364;2022-09-16T12:55:22;21.10;99.90
12520;DHT22;6325;49.540;8.364;2022-09-16T12:58:08;20.70;99.90
12520;DHT22;6325;49.540;8.364;2022-09-16T13:00:42;20.50;99.90
12520;DHT22;6325;49.540;8.364;2022-09-16T13:03:21;20.10;99.90
12520;DHT22;6325;49.540;8.364;2022-09-16T13:05:54;20.20;99.90
12520;DHT22;6325;49.540;8.364;2022-09-16T13:08:25;20.30;99.90
12520;DHT22;6325;49.540;8.364;2022-09-16T13:10:56;20.30;99.90
12520;DHT22;6325;49.540;8.364;2022-09-16T13:13:31;20.40;99.90
12520;DHT22;6325;49.540;8.364;2022-09-16T13:16:00;20.00;99.90
12520;DHT22;6325;49.540;8.364;2022-09-16T13:18:42;20.20;99.90
12520;DHT22;6325;49.540;8.364;2022-09-16T13:21:22;19.00;99.90
12520;DHT22;6325;49.540;8.364;2022-09-16T13:23:58;19.00;99.90
12520;DHT22;6325;49.540;8.364;2022-09-16T13:26:37;18.50;99.90
12520;DHT22;6325;49.540;8.364;2022-09-16T13:29:28;17.40;99.90
12520;DHT22;6325;49.540;8.364;2022-09-16T13:31:55;17.50;99.90
12520;DHT22;6325;49.540;8.364;2022-09-16T13:34:24;17.10;99.90
12520;DHT22;6325;49.540;8.364;2022-09-16T13:36:51;16.90;99.90
12520;DHT22;6325;49.540;8.364;2022-09-16T13:39:28;17.20;99.90
12520;DHT22;6325;49.540;8.364;2022-09-16T13:41:55;16.60;99.90
12520;DHT22;6325;49.540;8.364;2022-09-16T13:44:38;16.10;99.90
12520;DHT22;6325;49.540;8.364;2022-09-16T13:47:16;17.00;99.90
12520;DHT22;6325;49.540;8.364;2022-09-16T13:49:47;16.90;99.90
12520;DHT22;6325;49.540;8.364;2022-09-16T13:52:19;16.80;99.90
12520;DHT22;6325;49.540;8.364;2022-09-16T13:54:48;17.50;99.90
12520;DHT22;6325;49.540;8.364;2022-09-16T13:57:31;17.50;99.90
12520;DHT22;6325;49.540;8.364;2022-09-16T14:00:19;17.70;99.90
12520;DHT22;6325;49.540;8.364;2022-09-16T14:06:03;17.70;99.90
12520;DHT22;6325;49.540;8.364;2022-09-16T14:08:40;18.40;99.90
12520;DHT22;6325;49.540;8.364;2022-09-16T14:11:16;18.20;99.90
12520;DHT22;6325;49.540;8.364;2022-09-16T14:13:48;18.10;99.90
12520;DHT22;6325;49.540;8.364;2022-09-16T14:16:18;18.30;99.90
12520;DHT22;6325;49.540;8.364;2022-09-16T14:18:53;17.80;99.90
12520;DHT22;6325;49.540;8.364;2022-09-16T14:21:23;17.50;99.90
12520;DHT22;6325;49.540;8.364;2022-09-16T14:23:51;17.90;99.90
12520;DHT22;6325;49.540;8.364;2022-09-16T14:26:23;16.70;99.90
12520;DHT22;6325;49.540;8.364;2022-09-16T14:29:01;16.70;99.90
12520;DHT22;6325;49.540;8.364;2022-09-16T14:31:30;17.80;99.90
12520;DHT22;6325;49.540;8.364;2022-09-16T14:33:59;17.20;99.90
12520;DHT22;6325;49.540;8.364;2022-09-16T14:36:33;16.80;99.90
12520;DHT22;6325;49.540;8.364;2022-09-16T14:39:08;16.70;99.90
12520;DHT22;6325;49.540;8.364;2022-09-16T14:41:37;16.50;99.90
12520;DHT22;6325;49.540;8.364;2022-09-16T14:44:18;17.00;99.90
12520;DHT22;6325;49.540;8.364;2022-09-16T14:46:49;16.80;99.90
12520;DHT22;6325;49.540;8.364;2022-09-16T14:49:17;16.50;99.90
12520;DHT22;6325;49.540;8.364;2022-09-16T14:51:47;17.20;99.90
12520;DHT22;6325;49.540;8.364;2022-09-16T14:54:17;16.60;99.90
12520;DHT22;6325;49.540;8.364;2022-09-16T14:56:55;16.60;99.90
12520;DHT22;6325;49.540;8.364;2022-09-16T14:59:26;16.10;99.90
12520;DHT22;6325;49.540;8.364;2022-09-16T15:01:55;16.40;99.90
12520;DHT22;6325;49.540;8.364;2022-09-16T15:04:27;16.60;99.90
12520;DHT22;6325;49.540;8.364;2022-09-16T15:07:06;16.90;99.90
12520;DHT22;6325;49.540;8.364;2022-09-16T15:09:40;17.60;99.90
12520;DHT22;6325;49.540;8.364;2022-09-16T15:12:18;16.90;99.90
12520;DHT22;6325;49.540;8.364;2022-09-16T15:14:46;16.80;99.90
12520;DHT22;6325;49.540;8.364;2022-09-16T15:17:17;17.70;99.90
12520;DHT22;6325;49.540;8.364;2022-09-16T15:19:48;17.10;99.90
12520;DHT22;6325;49.540;8.364;2022-09-16T15:22:18;18.20;99.90
12520;DHT22;6325;49.540;8.364;2022-09-16T15:24:48;17.90;99.90
12520;DHT22;6325;49.540;8.364;2022-09-16T15:27:22;17.60;99.90
12520;DHT22;6325;49.540;8.364;2022-09-16T15:29:54;17.90;99.90
12520;DHT22;6325;49.540;8.364;2022-09-16T15:32:24;17.50;99.90
12520;DHT22;6325;49.540;8.364;2022-09-16T15:35:18;17.20;99.90
12520;DHT22;6325;49.540;8.364;2022-09-16T15:37:48;17.40;99.90
12520;DHT22;6325;49.540;8.364;2022-09-16T15:40:28;17.30;99.90
12520;DHT22;6325;49.540;8.364;2022-09-16T15:43:14;17.10;99.90
12520;DHT22;6325;49.540;8.364;2022-09-16T15:45:43;17.10;99.90
12520;DHT22;6325;49.540;8.364;2022-09-16T15:48:14;17.60;99.90
12520;DHT22;6325;49.540;8.364;2022-09-16T15:50:45;17.00;99.90
12520;DHT22;6325;49.540;8.364;2022-09-16T15:53:18;16.30;99.90
12520;DHT22;6325;49.540;8.364;2022-09-16T15:55:59;17.30;99.90
12520;DHT22;6325;49.540;8.364;2022-09-16T15:58:37;16.60;99.90
12520;DHT22;6325;49.540;8.364;2022-09-16T16:01:10;16.60;99.90
12520;DHT22;6325;49.540;8.364;2022-09-16T16:03:51;17.30;99.90
12520;DHT22;6325;49.540;8.364;2022-09-16T16:06:19;16.80;99.90
12520;DHT22;6325;49.540;8.364;2022-09-16T16:08:49;17.00;99.90
12520;DHT22;6325;49.540;8.364;2022-09-16T16:11:18;16.40;99.90
12520;DHT22;6325;49.540;8.364;2022-09-16T16:13:46;16.40;99.90
12520;DHT22;6325;49.540;8.364;2022-09-16T16:16:15;16.40;99.90
12520;DHT22;6325;49.540;8.364;2022-09-16T16:18:44;16.10;99.90
12520;DHT22;6325;49.540;8.364;2022-09-16T16:21:13;16.30;99.90
12520;DHT22;6325;49.540;8.364;2022-09-16T16:23:41;15.60;99.90
12520;DHT22;6325;49.540;8.364;2022-09-16T16:26:10;16.60;99.90
12520;DHT22;6325;49.540;8.364;2022-09-16T16:28:37;15.40;99.90
12520;DHT22;6325;49.540;8.364;2022-09-16T16:31:12;16.10;99.90
12520;DHT22;6325;49.540;8.364;2022-09-16T16:33:43;16.70;99.90
12520;DHT22;6325;49.540;8.364;2022-09-16T16:36:12;16.20;99.90
12520;DHT22;6325;49.540;8.364;2022-09-16T16:38:40;16.20;99.90
12520;DHT22;6325;49.540;8.364;2022-09-16T16:41:20;16.20;99.90
12520;DHT22;6325;49.540;8.364;2022-09-16T16:43:47;15.90;99.90
12520;DHT22;6325;49.540;8.364;2022-09-16T16:46:15;15.50;99.90
12520;DHT22;6325;49.540;8.364;2022-09-16T16:48:43;15.70;99.90
12520;DHT22;6325;49.540;8.364;2022-09-16T16:51:11;15.60;99.90
12520;DHT22;6325;49.540;8.364;2022-09-16T16:53:39;15.20;99.90
12520;DHT22;6325;49.540;8.364;2022-09-16T16:56:08;15.50;99.90
12520;DHT22;6325;49.540;8.364;2022-09-16T16:58:37;15.80;99.90
12520;DHT22;6325;49.540;8.364;2022-09-16T17:01:08;15.40;99.90
12520;DHT22;6325;49.540;8.364;2022-09-16T17:03:37;15.40;99.90
12520;DHT22;6325;49.540;8.364;2022-09-16T17:06:04;15.30;99.90
12520;DHT22;6325;49.540;8.364;2022-09-16T17:08:32;15.50;99.90
12520;DHT22;6325;49.540;8.364;2022-09-16T17:11:09;15.70;99.90
12520;DHT22;6325;49.540;8.364;2022-09-16T17:13:38;15.40;99.90
12520;DHT22;6325;49.540;8.364;2022-09-16T17:16:06;15.40;99.90
12520;DHT22;6325;49.540;8.364;2022-09-16T17:18:33;15.50;99.90
12520;DHT22;6325;49.540;8.364;2022-09-16T17:21:01;15.40;99.90
12520;DHT22;6325;49.540;8.364;2022-09-16T17:23:29;15.40;99.90
12520;DHT22;6325;49.540;8.364;2022-09-16T17:25:56;14.90;99.90
12520;DHT22;6325;49.540;8.364;2022-09-16T17:28:23;15.60;99.90
12520;DHT22;6325;49.540;8.364;2022-09-16T17:30:52;15.20;99.90
12520;DHT22;6325;49.540;8.364;2022-09-16T17:33:19;14.60;99.90
12520;DHT22;6325;49.540;8.364;2022-09-16T17:35:46;15.10;99.90
12520;DHT22;6325;49.540;8.364;2022-09-16T17:38:14;14.60;99.90
12520;DHT22;6325;49.540;8.364;2022-09-16T17:40:41;14.60;99.90
12520;DHT22;6325;49.540;8.364;2022-09-16T17:43:07;15.00;99.90
12520;DHT22;6325;49.540;8.364;2022-09-16T17:45:34;14.90;99.90
12520;DHT22;6325;49.540;8.364;2022-09-16T17:48:03;14.80;99.90
12520;DHT22;6325;49.540;8.364;2022-09-16T17:50:30;15.10;99.90
12520;DHT22;6325;49.540;8.364;2022-09-16T17:52:58;14.20;99.90
12520;DHT22;6325;49.540;8.364;2022-09-16T17:55:25;15.20;99.90
12520;DHT22;6325;49.540;8.364;2022-09-16T17:57:52;14.70;99.90
12520;DHT22;6325;49.540;8.364;2022-09-16T18:00:18;14.30;99.90
12520;DHT22;6325;49.540;8.364;2022-09-16T18:02:46;14.50;99.90
12520;DHT22;6325;49.540;8.364;2022-09-16T18:05:14;15.20;99.90
12520;DHT22;6325;49.540;8.364;2022-09-16T18:07:44;14.80;99.90
12520;DHT22;6325;49.540;8.364;2022-09-16T18:10:11;14.80;99.90
12520;DHT22;6325;49.540;8.364;2022-09-16T18:12:38;14.80;99.90
12520;DHT22;6325;49.540;8.364;2022-09-16T18:15:06;15.20;99.90
12520;DHT22;6325;49.540;8.364;2022-09-16T18:17:34;14.50;99.90
12520;DHT22;6325;49.540;8.364;2022-09-16T18:20:02;14.80;99.90
12520;DHT22;6325;49.540;8.364;2022-09-16T18:22:31;14.60;99.90
12520;DHT22;6325;49.540;8.364;2022-09-16T18:24:58;15.10;99.90
12520;DHT22;6325;49.540;8.364;2022-09-16T18:27:29;14.70;99.90
12520;DHT22;6325;49.540;8.364;2022-09-16T18:30:06;14.60;99.90
12520;DHT22;6325;49.540;8.364;2022-09-16T18:32:47;14.30;99.90
12520;DHT22;6325;49.540;8.364;2022-09-16T18:35:26;14.70;99.90
12520;DHT22;6325;49.540;8.364;2022-09-16T18:38:01;14.60;99.90
12520;DHT22;6325;49.540;8.364;2022-09-16T18:40:31;14.40;99.90
12520;DHT22;6325;49.540;8.364;2022-09-16T18:42:59;14.70;99.90
12520;DHT22;6325;49.540;8.364;2022-09-16T18:45:43;14.40;99.90
12520;DHT22;6325;49.540;8.364;2022-09-16T18:48:18;13.90;99.90
12520;DHT22;6325;49.540;8.364;2022-09-16T18:50:48;14.70;99.90
12520;DHT22;6325;49.540;8.364;2022-09-16T18:53:21;13.70;99.90
12520;DHT22;6325;49.540;8.364;2022-09-16T18:55:51;13.70;99.90
12520;DHT22;6325;49.540;8.364;2022-09-16T18:58:18;14.50;99.90
12520;DHT22;6325;49.540;8.364;2022-09-16T19:00:48;14.00;99.90
12520;DHT22;6325;49.540;8.364;2022-09-16T19:03:21;14.20;99.90
12520;DHT22;6325;49.540;8.364;2022-09-16T19:05:58;14.40;99.90
12520;DHT22;6325;49.540;8.364;2022-09-16T19:08:33;14.40;99.90
12520;DHT22;6325;49.540;8.364;2022-09-16T19:11:02;14.10;99.90
12520;DHT22;6325;49.540;8.364;2022-09-16T19:13:31;14.20;99.90
12520;DHT22;6325;49.540;8.364;2022-09-16T19:16:08;14.20;99.90
12520;DHT22;6325;49.540;8.364;2022-09-16T19:19:02;14.20;99.90
12520;DHT22;6325;49.540;8.364;2022-09-16T19:21:33;13.90;99.90
12520;DHT22;6325;49.540;8.364;2022-09-16T19:24:03;13.90;99.90
12520;DHT22;6325;49.540;8.364;2022-09-16T19:26:32;14.40;99.90
12520;DHT22;6325;49.540;8.364;2022-09-16T19:28:59;14.10;99.90
12520;DHT22;6325;49.540;8.364;2022-09-16T19:31:34;14.00;99.90
12520;DHT22;6325;49.540;8.364;2022-09-16T19:34:01;14.10;99.90
12520;DHT22;6325;49.540;8.364;2022-09-16T19:36:30;14.50;99.90
12520;DHT22;6325;49.540;8.364;2022-09-16T19:38:58;13.70;99.90
12520;DHT22;6325;49.540;8.364;2022-09-16T19:41:28;14.10;99.90
12520;DHT22;6325;49.540;8.364;2022-09-16T19:43:56;13.50;99.90
12520;DHT22;6325;49.540;8.364;2022-09-16T19:46:24;14.00;99.90
12520;DHT22;6325;49.540;8.364;2022-09-16T19:48:52;14.40;99.90
12520;DHT22;6325;49.540;8.364;2022-09-16T19:51:21;13.70;99.90
12520;DHT22;6325;49.540;8.364;2022-09-16T19:53:49;14.50;99.90
12520;DHT22;6325;49.540;8.364;2022-09-16T19:56:18;14.40;99.90
12520;DHT22;6325;49.540;8.364;2022-09-16T19:58:48;14.20;99.90
12520;DHT22;6325;49.540;8.364;2022-09-16T20:01:17;14.00;99.90
12520;DHT22;6325;49.540;8.364;2022-09-16T20:03:45;13.70;99.90
12520;DHT22;6325;49.540;8.364;2022-09-16T20:06:15;13.60;99.90
12520;DHT22;6325;49.540;8.364;2022-09-16T20:08:44;13.60;99.90
12520;DHT22;6325;49.540;8.364;2022-09-16T20:11:14;14.40;99.90
12520;DHT22;6325;49.540;8.364;2022-09-16T20:13:52;13.30;99.90
12520;DHT22;6325;49.540;8.364;2022-09-16T20:16:26;13.80;99.90
12520;DHT22;6325;49.540;8.364;2022-09-16T20:18:56;14.00;99.90
12520;DHT22;6325;49.540;8.364;2022-09-16T20:21:34;13.90;99.90
12520;DHT22;6325;49.540;8.364;2022-09-16T20:24:31;14.40;99.90
12520;DHT22;6325;49.540;8.364;2022-09-16T20:27:59;13.50;99.90
12520;DHT22;6325;49.540;8.364;2022-09-16T20:30:54;13.50;99.90
12520;DHT22;6325;49.540;8.364;2022-09-16T20:33:42;13.70;99.90
12520;DHT22;6325;49.540;8.364;2022-09-16T20:36:25;13.30;99.90
12520;DHT22;6325;49.540;8.364;2022-09-16T20:39:19;13.70;99.90
12520;DHT22;6325;49.540;8.364;2022-09-16T20:48:46;13.50;99.90
12520;DHT22;6325;49.540;8.364;2022-09-16T20:54:51;13.90;99.90
12520;DHT22;6325;49.540;8.364;2022-09-16T21:32:44;12.70;99.90
